Thurmond, North Carolina
Current Conditions -  °F | °C
As of 11:15 PM on Wednesday 22 Oct 2014 (Local Time) from KUKF Reporting Station
Clear Clear  
Wind Chill:   Ceiling: Unl
Heat Index:   Visibility: 10mi
Dew Point:   Wind: 7mph
Humidity: 66%   Direction: 330°NNW
Pressure: 30.16"   Gusts: NA
Location:  36.37°N, 80.93°W
Report Text: KUKF 230315Z AUTO 33006KT 10SM CLR 09/03 A3016 RMK AO2
Loading
Personal Weather Stations






























Interactive Weather Map
Tropical Storm Tracking
New forecast layout! Learn more

10-Day Weather Forecast

Advertisements
Track Severe Weather on mobile